createdAt,value
2018-02-05T00:00:58.643Z,1019.14
2018-02-05T00:01:58.576Z,1019.11
2018-02-05T00:02:58.587Z,1019.18
2018-02-05T00:03:58.627Z,1019.15
2018-02-05T00:04:58.530Z,1019.20
2018-02-05T00:05:58.839Z,1019.18
2018-02-05T00:06:58.524Z,1019.18
2018-02-05T00:07:58.521Z,1019.17
2018-02-05T00:08:58.567Z,1019.18
2018-02-05T00:09:58.473Z,1019.21
2018-02-05T00:10:58.488Z,1019.19
2018-02-05T00:11:58.839Z,1019.17
2018-02-05T00:12:58.476Z,1019.17
2018-02-05T00:13:58.430Z,1019.20
2018-02-05T00:14:58.449Z,1019.17
2018-02-05T00:15:58.449Z,1019.18
2018-02-05T00:16:58.405Z,1019.19
2018-02-05T00:17:58.876Z,1019.19
2018-02-05T00:18:58.445Z,1019.20
2018-02-05T00:19:58.613Z,1019.15
2018-02-05T00:20:58.368Z,1019.16
2018-02-05T00:21:58.363Z,1019.15
2018-02-05T00:22:58.369Z,1019.16
2018-02-05T00:23:58.798Z,1019.20
2018-02-05T00:24:58.319Z,1019.20
2018-02-05T00:25:58.311Z,1019.18
2018-02-05T00:26:58.343Z,1019.18
2018-02-05T00:27:58.325Z,1019.19
2018-02-05T00:28:58.308Z,1019.21
2018-02-05T00:29:58.277Z,1019.26
2018-02-05T00:30:58.593Z,1019.22
2018-02-05T00:31:58.269Z,1019.22
2018-02-05T00:32:58.280Z,1019.25
2018-02-05T00:33:58.242Z,1019.24
2018-02-05T00:34:58.236Z,1019.27
2018-02-05T00:35:58.293Z,1019.26
2018-02-05T00:36:58.230Z,1019.28
2018-02-05T00:37:58.557Z,1019.30
2018-02-05T00:38:58.202Z,1019.29
2018-02-05T00:39:58.256Z,1019.35
2018-02-05T00:40:58.234Z,1019.34
2018-02-05T00:41:58.220Z,1019.37
2018-02-05T00:42:58.537Z,1019.33
2018-02-05T00:43:58.141Z,1019.36
2018-02-05T00:44:58.646Z,1019.37
2018-02-05T00:45:58.290Z,1019.38
2018-02-05T00:46:58.113Z,1019.40
2018-02-05T00:47:58.124Z,1019.36
2018-02-05T00:48:58.178Z,1019.40
2018-02-05T00:49:58.123Z,1019.41
2018-02-05T00:50:58.060Z,1019.46
2018-02-05T00:51:58.427Z,1019.50
2018-02-05T00:52:58.081Z,1019.48
2018-02-05T00:53:58.038Z,1019.48
2018-02-05T00:54:58.053Z,1019.50
2018-02-05T00:55:58.011Z,1019.52
2018-02-05T00:56:58.116Z,1019.56
2018-02-05T00:57:57.985Z,1019.51
2018-02-05T00:59:58.264Z,1019.57
2018-02-05T01:00:57.964Z,1019.59
2018-02-05T01:01:57.980Z,1019.62
2018-02-05T01:02:57.950Z,1019.56
2018-02-05T01:03:58.017Z,1019.58
2018-02-05T01:04:57.942Z,1019.61
2018-02-05T01:05:57.949Z,1019.61
2018-02-05T01:06:58.246Z,1019.63
2018-02-05T01:07:58.382Z,1019.59
2018-02-05T01:08:57.905Z,1019.61
2018-02-05T01:09:58.194Z,1019.62
2018-02-05T01:10:57.901Z,1019.65
2018-02-05T01:13:57.829Z,1019.71
2018-02-05T01:14:58.178Z,1019.68
2018-02-05T01:15:57.822Z,1019.68
2018-02-05T01:16:57.795Z,1019.71
2018-02-05T01:17:57.789Z,1019.70
2018-02-05T01:18:57.811Z,1019.74
2018-02-05T01:19:57.767Z,1019.74
2018-02-05T01:20:58.122Z,1019.72
2018-02-05T01:21:57.765Z,1019.76
2018-02-05T01:23:57.774Z,1019.76
2018-02-05T01:24:57.747Z,1019.75
2018-02-05T01:25:58.292Z,1019.80
2018-02-05T01:27:58.182Z,1019.78
2018-02-05T01:28:57.707Z,1019.80
2018-02-05T01:29:57.692Z,1019.82
2018-02-05T01:30:57.652Z,1019.82
2018-02-05T01:31:57.660Z,1019.81
2018-02-05T01:32:57.987Z,1019.84
2018-02-05T01:33:57.990Z,1019.81
2018-02-05T01:34:57.748Z,1019.80
2018-02-05T01:35:57.613Z,1019.83
2018-02-05T01:36:57.605Z,1019.84
2018-02-05T01:37:57.607Z,1019.85
2018-02-05T01:38:57.623Z,1019.82
2018-02-05T01:39:57.962Z,1019.82
2018-02-05T01:40:57.597Z,1019.86
2018-02-05T01:41:57.556Z,1019.87
2018-02-05T01:43:57.532Z,1019.89
2018-02-05T01:44:57.573Z,1019.92
2018-02-05T01:45:57.868Z,1019.94
2018-02-05T01:46:57.503Z,1019.95
2018-02-05T01:47:57.513Z,1019.91
2018-02-05T01:48:57.508Z,1019.96
2018-02-05T01:49:57.462Z,1020.00
2018-02-05T01:50:57.502Z,1019.97
2018-02-05T01:51:57.848Z,1019.97
2018-02-05T01:52:57.551Z,1019.97
2018-02-05T01:53:57.568Z,1020.01
2018-02-05T01:54:57.437Z,1020.01
2018-02-05T01:55:57.723Z,1020.03
2018-02-05T01:56:57.705Z,1020.07
2018-02-05T01:57:58.460Z,1020.10
2018-02-05T01:58:57.394Z,1020.05
2018-02-05T02:00:57.452Z,1020.07
2018-02-05T02:01:57.383Z,1020.09
2018-02-05T02:02:57.363Z,1020.08
2018-02-05T02:03:57.363Z,1020.10
2018-02-05T02:04:57.621Z,1020.13
2018-02-05T02:05:57.347Z,1020.10
2018-02-05T02:06:57.306Z,1020.08
2018-02-05T02:07:57.294Z,1020.11
2018-02-05T02:08:57.302Z,1020.15
2018-02-05T02:09:57.825Z,1020.14
2018-02-05T02:10:57.368Z,1020.18
2018-02-05T02:11:57.533Z,1020.17
2018-02-05T02:12:57.248Z,1020.18
2018-02-05T02:13:57.247Z,1020.16
2018-02-05T02:14:57.240Z,1020.17
2018-02-05T02:15:57.270Z,1020.19
2018-02-05T02:16:57.217Z,1020.16
2018-02-05T02:18:57.522Z,1020.18
2018-02-05T02:19:57.224Z,1020.17
2018-02-05T02:20:57.437Z,1020.20
2018-02-05T02:21:57.161Z,1020.21
2018-02-05T02:22:57.403Z,1020.21
2018-02-05T02:23:57.125Z,1020.23
2018-02-05T02:24:57.150Z,1020.19
2018-02-05T02:25:57.475Z,1020.26
2018-02-05T02:26:57.099Z,1020.23
2018-02-05T02:27:57.082Z,1020.28
2018-02-05T02:28:57.080Z,1020.28
2018-02-05T02:29:57.088Z,1020.29
2018-02-05T02:30:57.053Z,1020.33
2018-02-05T02:31:57.072Z,1020.31
2018-02-05T02:32:57.446Z,1020.32
2018-02-05T02:33:57.057Z,1020.35
2018-02-05T02:34:57.017Z,1020.35
2018-02-05T02:35:56.998Z,1020.38
2018-02-05T02:36:56.995Z,1020.34
2018-02-05T02:37:57.057Z,1020.37
2018-02-05T02:38:57.008Z,1020.39
2018-02-05T02:39:57.329Z,1020.36
2018-02-05T02:40:56.960Z,1020.38
2018-02-05T02:41:56.964Z,1020.38
2018-02-05T02:42:56.954Z,1020.37
2018-02-05T02:43:56.957Z,1020.40
2018-02-05T02:44:56.940Z,1020.35
2018-02-05T02:45:57.251Z,1020.40
2018-02-05T02:46:57.230Z,1020.40
2018-02-05T02:47:56.968Z,1020.41
2018-02-05T02:48:56.882Z,1020.41
2018-02-05T02:49:56.896Z,1020.43
2018-02-05T02:50:56.865Z,1020.43
2018-02-05T02:51:56.887Z,1020.44
2018-02-05T02:52:57.195Z,1020.43
2018-02-05T02:53:56.897Z,1020.45
2018-02-05T02:54:56.858Z,1020.43
2018-02-05T02:55:56.853Z,1020.48
2018-02-05T02:56:56.798Z,1020.47
2018-02-05T02:57:56.848Z,1020.43
2018-02-05T02:58:57.158Z,1020.48
2018-02-05T02:59:56.768Z,1020.43
2018-02-05T03:00:56.775Z,1020.46
2018-02-05T03:01:56.735Z,1020.50
2018-02-05T03:02:56.787Z,1020.45
2018-02-05T03:03:56.734Z,1020.48
2018-02-05T03:04:57.095Z,1020.51
2018-02-05T03:05:56.767Z,1020.48
2018-02-05T03:06:56.727Z,1020.48
2018-02-05T03:07:56.679Z,1020.53
2018-02-05T03:08:56.692Z,1020.54
2018-02-05T03:09:56.699Z,1020.51
2018-02-05T03:10:57.570Z,1020.52
2018-02-05T03:11:56.668Z,1020.52
2018-02-05T03:12:56.694Z,1020.56
2018-02-05T03:13:56.679Z,1020.55
2018-02-05T03:14:56.631Z,1020.58
2018-02-05T03:15:56.617Z,1020.61
2018-02-05T03:16:56.944Z,1020.60
2018-02-05T03:17:56.606Z,1020.63
2018-02-05T03:18:56.624Z,1020.66
2018-02-05T03:19:56.574Z,1020.63
2018-02-05T03:20:56.549Z,1020.63
2018-02-05T03:21:56.538Z,1020.64
2018-02-05T03:23:56.907Z,1020.58
2018-02-05T03:24:56.698Z,1020.64
2018-02-05T03:25:56.524Z,1020.64
2018-02-05T03:26:56.486Z,1020.63
2018-02-05T03:27:56.486Z,1020.63
2018-02-05T03:28:56.489Z,1020.65
2018-02-05T03:29:56.831Z,1020.69
2018-02-05T03:30:56.468Z,1020.71
2018-02-05T03:31:56.433Z,1020.73
2018-02-05T03:32:56.449Z,1020.69
2018-02-05T03:33:56.417Z,1020.72
2018-02-05T03:34:56.413Z,1020.71
2018-02-05T03:35:56.901Z,1020.74
2018-02-05T03:36:56.771Z,1020.71
2018-02-05T03:37:56.710Z,1020.75
2018-02-05T03:38:56.386Z,1020.74
2018-02-05T03:39:56.384Z,1020.76
2018-02-05T03:40:56.353Z,1020.77
2018-02-05T03:41:56.337Z,1020.75
2018-02-05T03:42:56.366Z,1020.82
2018-02-05T03:43:56.627Z,1020.79
2018-02-05T03:44:56.348Z,1020.80
2018-02-05T03:45:56.305Z,1020.80
2018-02-05T03:46:56.339Z,1020.83
2018-02-05T03:47:56.293Z,1020.81
2018-02-05T03:48:56.262Z,1020.82
2018-02-05T03:49:56.274Z,1020.82
2018-02-05T03:50:56.614Z,1020.86
2018-02-05T03:51:56.250Z,1020.82
2018-02-05T03:52:56.268Z,1020.82
2018-02-05T03:53:56.265Z,1020.86
2018-02-05T03:54:56.241Z,1020.80
2018-02-05T03:55:56.202Z,1020.79
2018-02-05T03:56:56.206Z,1020.78
2018-02-05T03:57:56.510Z,1020.80
2018-02-05T03:58:56.228Z,1020.78
2018-02-05T03:59:56.193Z,1020.77
2018-02-05T04:00:56.641Z,1020.79
2018-02-05T04:01:56.177Z,1020.81
2018-02-05T04:02:56.710Z,1020.81
2018-02-05T04:03:56.134Z,1020.84
2018-02-05T04:04:56.458Z,1020.87
2018-02-05T04:05:56.119Z,1020.88
2018-02-05T04:06:56.102Z,1020.91
2018-02-05T04:07:56.109Z,1020.91
2018-02-05T04:08:56.114Z,1020.91
2018-02-05T04:09:56.097Z,1020.92
2018-02-05T04:10:56.063Z,1020.94
2018-02-05T04:11:56.401Z,1020.97
2018-02-05T04:12:56.031Z,1020.99
2018-02-05T04:13:56.095Z,1020.96
2018-02-05T04:16:56.017Z,1020.98
2018-02-05T04:17:55.977Z,1021.01
2018-02-05T04:18:56.373Z,1021.05
2018-02-05T04:19:55.960Z,1021.07
2018-02-05T04:20:55.948Z,1021.15
2018-02-05T04:21:55.933Z,1021.17
2018-02-05T04:22:55.950Z,1021.10
2018-02-05T04:23:55.938Z,1021.12
2018-02-05T04:24:56.000Z,1021.09
2018-02-05T04:25:56.796Z,1021.09
2018-02-05T04:26:55.909Z,1021.10
2018-02-05T04:27:56.178Z,1021.10
2018-02-05T04:28:55.879Z,1021.11
2018-02-05T04:29:55.894Z,1021.13
2018-02-05T04:30:55.870Z,1021.08
2018-02-05T04:31:56.149Z,1021.05
2018-02-05T04:32:55.865Z,1021.12
2018-02-05T04:33:55.811Z,1021.08
2018-02-05T04:34:55.850Z,1021.13
2018-02-05T04:35:55.794Z,1021.14
2018-02-05T04:36:55.790Z,1021.13
2018-02-05T04:37:56.095Z,1021.12
2018-02-05T04:38:55.755Z,1021.13
2018-02-05T04:39:55.764Z,1021.12
2018-02-05T04:40:55.777Z,1021.11
2018-02-05T04:43:56.069Z,1021.17
2018-02-05T04:44:55.749Z,1021.16
2018-02-05T04:45:55.694Z,1021.17
2018-02-05T04:46:55.702Z,1021.18
2018-02-05T04:47:55.669Z,1021.22
2018-02-05T04:49:56.016Z,1021.21
2018-02-05T04:50:56.217Z,1021.23
2018-02-05T04:51:55.686Z,1021.26
2018-02-05T04:52:55.924Z,1021.24
2018-02-05T04:53:55.662Z,1021.23
2018-02-05T04:54:55.625Z,1021.23
2018-02-05T04:55:55.974Z,1021.20
2018-02-05T04:56:55.664Z,1021.21
2018-02-05T04:57:55.583Z,1021.22
2018-02-05T04:58:55.571Z,1021.21
2018-02-05T04:59:55.567Z,1021.21
2018-02-05T05:00:55.558Z,1021.19
2018-02-05T05:01:55.920Z,1021.20
2018-02-05T05:02:55.543Z,1021.20
2018-02-05T05:03:55.601Z,1021.21
2018-02-05T05:04:55.560Z,1021.26
2018-02-05T05:05:55.579Z,1021.21
2018-02-05T05:07:55.832Z,1021.22
2018-02-05T05:11:55.556Z,1021.22
2018-02-05T05:15:56.040Z,1021.21
2018-02-05T05:16:55.413Z,1021.22
2018-02-05T05:19:55.352Z,1021.20
2018-02-05T05:20:55.343Z,1021.22
2018-02-05T05:21:55.351Z,1021.21
2018-02-05T05:23:55.612Z,1021.22
2018-02-05T05:24:55.334Z,1021.23
2018-02-05T05:25:55.347Z,1021.23
2018-02-05T05:26:55.290Z,1021.20
2018-02-05T05:27:55.268Z,1021.19
2018-02-05T05:28:55.267Z,1021.19
2018-02-05T05:29:55.279Z,1021.18
2018-02-05T05:30:55.813Z,1021.18
2018-02-05T05:31:55.230Z,1021.22
2018-02-05T05:32:55.234Z,1021.21
2018-02-05T05:33:55.214Z,1021.22
2018-02-05T05:34:55.234Z,1021.23
2018-02-05T05:35:55.244Z,1021.21
2018-02-05T05:38:55.590Z,1021.24
2018-02-05T05:39:55.164Z,1021.26
2018-02-05T05:41:55.217Z,1021.24
2018-02-05T05:43:55.141Z,1021.29
2018-02-05T05:44:55.124Z,1021.27
2018-02-05T05:45:55.522Z,1021.30
2018-02-05T05:46:55.346Z,1021.29
2018-02-05T05:48:55.058Z,1021.31
2018-02-05T05:49:55.056Z,1021.30
2018-02-05T05:50:55.081Z,1021.34
2018-02-05T05:51:55.032Z,1021.37
2018-02-05T05:52:55.395Z,1021.38
2018-02-05T05:53:55.036Z,1021.39
2018-02-05T05:54:55.009Z,1021.38
2018-02-05T05:57:55.002Z,1021.42
2018-02-05T05:58:54.987Z,1021.42
2018-02-05T05:59:55.314Z,1021.42
2018-02-05T06:00:54.944Z,1021.41
2018-02-05T06:01:54.959Z,1021.42
2018-02-05T06:02:54.978Z,1021.42
2018-02-05T06:03:55.048Z,1021.40
2018-02-05T06:04:54.933Z,1021.43
2018-02-05T06:06:55.375Z,1021.44
2018-02-05T06:07:55.115Z,1021.43
2018-02-05T06:08:54.892Z,1021.40
2018-02-05T06:09:54.915Z,1021.46
2018-02-05T06:10:54.849Z,1021.46
2018-02-05T06:11:54.856Z,1021.49
2018-02-05T06:13:55.264Z,1021.48
2018-02-05T06:15:54.886Z,1021.52
2018-02-05T06:16:54.824Z,1021.52
2018-02-05T06:17:54.794Z,1021.52
2018-02-05T06:18:54.848Z,1021.48
2018-02-05T06:19:55.140Z,1021.49
2018-02-05T06:20:54.800Z,1021.48
2018-02-05T06:22:54.816Z,1021.54
2018-02-05T06:24:54.822Z,1021.53
2018-02-05T06:25:54.797Z,1021.54
2018-02-05T06:26:55.068Z,1021.52
2018-02-05T06:27:54.692Z,1021.56
2018-02-05T06:29:54.684Z,1021.55
2018-02-05T06:31:54.882Z,1021.55
2018-02-05T06:32:54.808Z,1021.53
2018-02-05T06:33:54.970Z,1021.49
2018-02-05T06:34:54.694Z,1021.52
2018-02-05T06:35:54.642Z,1021.54
2018-02-05T06:37:54.622Z,1021.57
2018-02-05T06:38:54.606Z,1021.59
2018-02-05T06:39:55.018Z,1021.56
2018-02-05T06:40:54.542Z,1021.52
2018-02-05T06:42:54.507Z,1021.56
2018-02-05T06:43:54.586Z,1021.57
2018-02-05T06:44:54.576Z,1021.56
2018-02-05T06:45:54.614Z,1021.57
2018-02-05T06:48:54.813Z,1021.64
2018-02-05T06:49:54.495Z,1021.63
2018-02-05T06:50:54.472Z,1021.68
2018-02-05T06:51:54.613Z,1021.66
2018-02-05T06:53:54.812Z,1021.70
2018-02-05T06:54:54.425Z,1021.69
2018-02-05T06:55:55.138Z,1021.69
2018-02-05T06:56:54.433Z,1021.72
2018-02-05T06:57:54.726Z,1021.73
2018-02-05T06:58:54.643Z,1021.78
2018-02-05T06:59:54.474Z,1021.80
2018-02-05T07:00:54.331Z,1021.80
2018-02-05T07:01:54.328Z,1021.82
2018-02-05T07:04:54.839Z,1021.85
2018-02-05T07:05:54.316Z,1021.81
2018-02-05T07:06:54.305Z,1021.85
2018-02-05T07:07:54.342Z,1021.83
2018-02-05T07:08:54.255Z,1021.82
2018-02-05T07:09:54.259Z,1021.87
2018-02-05T07:12:54.643Z,1021.83
2018-02-05T07:13:54.206Z,1021.80
2018-02-05T07:14:54.286Z,1021.82
2018-02-05T07:15:54.164Z,1021.79
2018-02-05T07:17:54.227Z,1021.75
2018-02-05T07:18:54.403Z,1021.77
2018-02-05T07:19:54.544Z,1021.80
2018-02-05T07:20:54.630Z,1021.81
2018-02-05T07:22:54.245Z,1021.81
2018-02-05T07:24:54.140Z,1021.84
2018-02-05T07:26:54.501Z,1021.85
2018-02-05T07:27:54.258Z,1021.81
2018-02-05T07:29:54.094Z,1021.80
2018-02-05T07:31:54.246Z,1021.82
2018-02-05T07:32:54.092Z,1021.84
2018-02-05T07:33:54.344Z,1021.88
2018-02-05T07:35:54.082Z,1021.86
2018-02-05T07:36:53.964Z,1021.90
2018-02-05T07:37:53.973Z,1021.91
2018-02-05T07:38:53.940Z,1021.88
2018-02-05T07:39:54.299Z,1021.92
2018-02-05T07:41:53.964Z,1021.90
2018-02-05T07:42:53.919Z,1021.94
2018-02-05T07:43:54.359Z,1021.98
2018-02-05T07:44:53.915Z,1021.96
2018-02-05T07:45:54.331Z,1021.93
2018-02-05T07:46:53.860Z,1022.00
2018-02-05T07:47:53.829Z,1022.00
2018-02-05T07:49:53.873Z,1021.96
2018-02-05T07:51:54.222Z,1021.91
2018-02-05T07:52:53.877Z,1021.90
2018-02-05T07:54:53.921Z,1021.95
2018-02-05T07:55:53.746Z,1021.92
2018-02-05T07:56:53.860Z,1021.94
2018-02-05T07:57:54.113Z,1021.96
2018-02-05T07:58:53.715Z,1021.97
2018-02-05T07:59:53.917Z,1021.97
2018-02-05T08:00:53.793Z,1021.97
2018-02-05T08:01:53.698Z,1021.98
2018-02-05T08:02:53.662Z,1021.99
2018-02-05T08:03:54.370Z,1021.99
2018-02-05T08:05:53.708Z,1021.95
2018-02-05T08:07:53.918Z,1021.97
2018-02-05T08:08:53.672Z,1021.96
2018-02-05T08:09:54.018Z,1021.99
2018-02-05T08:11:53.637Z,1021.97
2018-02-05T08:12:53.568Z,1021.99
2018-02-05T08:13:53.668Z,1021.99
2018-02-05T08:15:53.948Z,1021.99
2018-02-05T08:16:53.577Z,1021.98
2018-02-05T08:17:53.541Z,1021.98
2018-02-05T08:18:53.527Z,1021.98
2018-02-05T08:20:53.534Z,1022.03
2018-02-05T08:21:53.529Z,1022.04
2018-02-05T08:22:53.744Z,1022.05
2018-02-05T08:23:53.453Z,1022.01
2018-02-05T08:24:53.449Z,1022.01
2018-02-05T08:25:53.467Z,1022.05
2018-02-05T08:26:53.500Z,1022.03
2018-02-05T08:28:53.441Z,1022.02
2018-02-05T08:29:54.176Z,1022.02
2018-02-05T08:30:53.403Z,1022.04
2018-02-05T08:31:53.452Z,1022.05
2018-02-05T08:32:53.390Z,1022.02
2018-02-05T08:33:53.388Z,1021.97
2018-02-05T08:34:53.345Z,1022.02
2018-02-05T08:35:53.702Z,1022.04
2018-02-05T08:36:53.691Z,1022.07
2018-02-05T08:37:53.364Z,1021.99
2018-02-05T08:38:53.300Z,1022.01
2018-02-05T08:39:53.324Z,1022.01
2018-02-05T08:40:53.349Z,1022.02
2018-02-05T08:41:53.254Z,1022.05
2018-02-05T08:42:53.261Z,1022.00
2018-02-05T08:43:53.760Z,1022.00
2018-02-05T08:44:53.276Z,1022.03
2018-02-05T08:46:53.218Z,1022.01
2018-02-05T08:47:53.240Z,1022.03
2018-02-05T08:48:53.227Z,1022.00
2018-02-05T08:49:53.243Z,1022.02
2018-02-05T08:50:53.600Z,1021.97
2018-02-05T08:51:53.170Z,1021.97
2018-02-05T08:52:53.188Z,1021.99
2018-02-05T08:53:53.242Z,1022.01
2018-02-05T08:54:53.216Z,1022.00
2018-02-05T08:55:53.103Z,1021.98
2018-02-05T08:58:53.832Z,1022.01
2018-02-05T08:59:53.131Z,1022.05
2018-02-05T09:00:53.183Z,1022.06
2018-02-05T09:02:53.098Z,1022.03
2018-02-05T09:03:53.032Z,1022.02
2018-02-05T09:06:53.408Z,1022.05
2018-02-05T09:07:53.132Z,1022.03
2018-02-05T09:08:53.073Z,1022.08
2018-02-05T09:09:52.976Z,1022.10
2018-02-05T09:10:53.056Z,1022.09
2018-02-05T09:11:53.020Z,1022.05
2018-02-05T09:12:53.286Z,1022.06
2018-02-05T09:13:53.000Z,1022.08
2018-02-05T09:15:52.943Z,1022.07
2018-02-05T09:17:52.979Z,1022.04
2018-02-05T09:18:52.899Z,1022.02
2018-02-05T09:20:53.163Z,1022.04
2018-02-05T09:21:53.061Z,1022.03
2018-02-05T09:22:52.953Z,1022.00
2018-02-05T09:23:52.920Z,1022.04
2018-02-05T09:24:52.895Z,1022.01
2018-02-05T09:26:53.161Z,1022.02
2018-02-05T09:27:52.808Z,1022.02
2018-02-05T09:29:52.808Z,1022.03
2018-02-05T09:32:53.033Z,1022.02
2018-02-05T09:34:52.729Z,1022.02
2018-02-05T09:35:52.783Z,1022.01
2018-02-05T09:36:52.805Z,1021.98
2018-02-05T09:37:52.737Z,1021.99
2018-02-05T09:38:53.116Z,1021.97
2018-02-05T09:40:52.680Z,1021.92
2018-02-05T09:41:52.906Z,1021.92
2018-02-05T09:43:52.629Z,1021.88
2018-02-05T09:44:52.713Z,1021.91
2018-02-05T09:45:52.956Z,1021.91
2018-02-05T09:46:52.565Z,1021.92
2018-02-05T09:47:52.574Z,1021.94
2018-02-05T09:48:52.579Z,1021.94
2018-02-05T09:49:52.493Z,1021.90
2018-02-05T09:51:52.870Z,1021.93
2018-02-05T09:53:52.505Z,1021.95
2018-02-05T09:54:52.535Z,1021.98
2018-02-05T09:55:52.490Z,1022.01
2018-02-05T09:56:52.473Z,1022.05
2018-02-05T09:58:52.876Z,1022.01
2018-02-05T09:59:52.442Z,1022.00
2018-02-05T10:01:52.475Z,1021.97
2018-02-05T10:02:52.454Z,1022.00
2018-02-05T10:03:52.409Z,1021.98
2018-02-05T10:04:52.383Z,1022.00
2018-02-05T10:05:52.753Z,1022.00
2018-02-05T10:06:52.367Z,1022.03
2018-02-05T10:07:52.366Z,1022.02
2018-02-05T10:08:52.442Z,1022.00
2018-02-05T10:09:52.358Z,1022.04
2018-02-05T10:10:52.374Z,1022.01
2018-02-05T10:12:52.660Z,1022.03
2018-02-05T10:15:52.692Z,1022.02
2018-02-05T10:16:52.302Z,1021.97
2018-02-05T10:17:52.521Z,1022.02
2018-02-05T10:18:52.423Z,1022.00
2018-02-05T10:19:52.639Z,1022.04
2018-02-05T10:20:52.393Z,1022.02
2018-02-05T10:22:52.225Z,1022.01
2018-02-05T10:24:52.294Z,1021.93
2018-02-05T10:25:52.273Z,1021.95
2018-02-05T10:26:52.593Z,1021.95
2018-02-05T10:27:52.144Z,1021.98
2018-02-05T10:28:52.420Z,1021.90
2018-02-05T10:30:52.190Z,1021.91
2018-02-05T10:32:52.475Z,1021.97
2018-02-05T10:36:52.321Z,1021.96
2018-02-05T10:37:52.547Z,1021.99
2018-02-05T10:38:52.044Z,1021.98
2018-02-05T10:39:52.341Z,1022.05
2018-02-05T10:42:52.171Z,1021.97
2018-02-05T10:43:52.018Z,1021.94
2018-02-05T10:44:52.055Z,1021.91
2018-02-05T10:46:52.314Z,1021.89
2018-02-05T10:47:52.128Z,1021.84
2018-02-05T10:48:52.258Z,1021.89
2018-02-05T10:49:51.924Z,1021.88
2018-02-05T10:50:52.158Z,1021.88
2018-02-05T10:52:52.330Z,1021.89
2018-02-05T10:53:51.939Z,1021.82
2018-02-05T10:54:51.949Z,1021.82
2018-02-05T10:55:51.922Z,1021.83
2018-02-05T10:56:51.940Z,1021.78
2018-02-05T10:57:51.958Z,1021.80
2018-02-05T10:59:52.365Z,1021.83
2018-02-05T11:00:51.837Z,1021.79
2018-02-05T11:01:51.800Z,1021.80
2018-02-05T11:03:51.848Z,1021.83
2018-02-05T11:07:51.732Z,1021.81
2018-02-05T11:09:51.736Z,1021.80
2018-02-05T11:10:51.731Z,1021.79
2018-02-05T11:11:52.186Z,1021.80
2018-02-05T11:12:51.674Z,1021.80
2018-02-05T11:13:52.146Z,1021.82
2018-02-05T11:14:51.713Z,1021.79
2018-02-05T11:15:51.669Z,1021.75
2018-02-05T11:17:52.077Z,1021.77
2018-02-05T11:18:51.708Z,1021.77
2018-02-05T11:21:51.664Z,1021.82
2018-02-05T11:22:51.632Z,1021.77
2018-02-05T11:24:51.908Z,1021.73
2018-02-05T11:25:51.562Z,1021.76
2018-02-05T11:26:51.620Z,1021.80
2018-02-05T11:27:51.615Z,1021.79
2018-02-05T11:28:51.617Z,1021.76
2018-02-05T11:31:51.851Z,1021.73
2018-02-05T11:33:51.553Z,1021.76
2018-02-05T11:34:51.490Z,1021.75
2018-02-05T11:36:51.479Z,1021.75
2018-02-05T11:37:51.423Z,1021.76
2018-02-05T11:38:51.893Z,1021.74
2018-02-05T11:39:51.428Z,1021.77
2018-02-05T11:40:51.567Z,1021.76
2018-02-05T11:41:51.443Z,1021.72
2018-02-05T11:42:51.413Z,1021.75
2018-02-05T11:43:51.377Z,1021.70
2018-02-05T11:44:51.368Z,1021.75
2018-02-05T11:45:51.627Z,1021.72
2018-02-05T11:46:51.447Z,1021.67
2018-02-05T11:47:51.402Z,1021.72
2018-02-05T11:48:51.345Z,1021.67
2018-02-05T11:49:51.397Z,1021.66
2018-02-05T11:50:51.350Z,1021.62
2018-02-05T11:51:51.306Z,1021.61
2018-02-05T11:52:51.706Z,1021.60
2018-02-05T11:53:51.282Z,1021.57
2018-02-05T11:54:51.239Z,1021.58
2018-02-05T11:55:51.248Z,1021.55
2018-02-05T11:56:51.246Z,1021.57
2018-02-05T11:57:51.253Z,1021.55
2018-02-05T11:59:51.589Z,1021.57
2018-02-05T12:00:51.415Z,1021.51
2018-02-05T12:01:51.165Z,1021.51
2018-02-05T12:03:51.167Z,1021.46
2018-02-05T12:04:51.317Z,1021.46
2018-02-05T12:05:51.145Z,1021.47
2018-02-05T12:06:51.462Z,1021.47
2018-02-05T12:07:51.179Z,1021.42
2018-02-05T12:11:51.150Z,1021.41
2018-02-05T12:12:51.181Z,1021.49
2018-02-05T12:13:51.440Z,1021.41
2018-02-05T12:14:51.051Z,1021.40
2018-02-05T12:15:51.120Z,1021.43
2018-02-05T12:16:51.059Z,1021.39
2018-02-05T12:17:51.222Z,1021.37
2018-02-05T12:18:50.983Z,1021.37
2018-02-05T12:19:51.370Z,1021.38
2018-02-05T12:20:51.068Z,1021.38
2018-02-05T12:21:50.954Z,1021.34
2018-02-05T12:22:51.018Z,1021.33
2018-02-05T12:25:51.352Z,1021.28
2018-02-05T12:26:50.913Z,1021.28
2018-02-05T12:27:50.914Z,1021.27
2018-02-05T12:29:51.031Z,1021.26
2018-02-05T12:30:50.893Z,1021.24
2018-02-05T12:31:51.301Z,1021.24
2018-02-05T12:32:51.004Z,1021.23
2018-02-05T12:34:50.880Z,1021.20
2018-02-05T12:35:50.863Z,1021.19
2018-02-05T12:36:50.875Z,1021.19
2018-02-05T12:37:51.077Z,1021.16
2018-02-05T12:38:50.830Z,1021.13
2018-02-05T12:39:50.795Z,1021.16
2018-02-05T12:40:50.836Z,1021.14
2018-02-05T12:43:51.160Z,1021.07
2018-02-05T12:44:50.741Z,1021.09
2018-02-05T12:45:50.767Z,1021.00
2018-02-05T12:47:50.743Z,1020.95
2018-02-05T12:48:50.695Z,1020.97
2018-02-05T12:50:51.136Z,1020.94
2018-02-05T12:51:52.082Z,1020.91
2018-02-05T12:54:50.785Z,1020.95
2018-02-05T12:55:50.745Z,1020.92
2018-02-05T12:56:51.154Z,1020.93
2018-02-05T12:57:50.618Z,1020.94
2018-02-05T12:58:50.657Z,1020.91
2018-02-05T13:01:50.564Z,1020.90
2018-02-05T13:02:50.603Z,1020.88
2018-02-05T13:03:51.213Z,1020.88
2018-02-05T13:05:50.909Z,1020.87
2018-02-05T13:06:50.777Z,1020.81
2018-02-05T13:08:51.832Z,1020.81
2018-02-05T13:09:50.714Z,1020.80
2018-02-05T13:10:51.268Z,1020.81
2018-02-05T13:11:50.465Z,1020.79
2018-02-05T13:12:50.444Z,1020.78
2018-02-05T13:13:50.517Z,1020.81
2018-02-05T13:14:50.415Z,1020.81
2018-02-05T13:15:50.429Z,1020.79
2018-02-05T13:16:50.451Z,1020.79
2018-02-05T13:17:50.988Z,1020.79
2018-02-05T13:18:50.407Z,1020.77
2018-02-05T13:19:50.366Z,1020.73
2018-02-05T13:20:50.377Z,1020.72
2018-02-05T13:21:50.350Z,1020.71
2018-02-05T13:22:50.388Z,1020.68
2018-02-05T13:23:50.335Z,1020.64
2018-02-05T13:26:51.030Z,1020.59
2018-02-05T13:27:50.365Z,1020.58
2018-02-05T13:28:50.504Z,1020.58
2018-02-05T13:29:50.304Z,1020.58
2018-02-05T13:30:50.347Z,1020.57
2018-02-05T13:31:50.623Z,1020.60
2018-02-05T13:32:50.265Z,1020.57
2018-02-05T13:34:50.829Z,1020.55
2018-02-05T13:35:50.239Z,1020.50
2018-02-05T13:36:50.224Z,1020.47
2018-02-05T13:37:50.279Z,1020.44
2018-02-05T13:38:50.179Z,1020.47
2018-02-05T13:39:50.255Z,1020.48
2018-02-05T13:41:50.486Z,1020.46
2018-02-05T13:42:50.218Z,1020.48
2018-02-05T13:43:50.126Z,1020.46
2018-02-05T13:46:50.195Z,1020.47
2018-02-05T13:48:50.619Z,1020.46
2018-02-05T13:53:50.196Z,1020.37
2018-02-05T13:54:50.014Z,1020.33
2018-02-05T13:55:50.566Z,1020.37
2018-02-05T13:57:50.016Z,1020.33
2018-02-05T13:58:49.982Z,1020.36
2018-02-05T13:59:49.995Z,1020.34
2018-02-05T14:00:49.959Z,1020.30
2018-02-05T14:01:50.313Z,1020.35
2018-02-05T14:02:49.948Z,1020.29
2018-02-05T14:04:49.896Z,1020.27
2018-02-05T14:05:49.895Z,1020.27
2018-02-05T14:06:49.888Z,1020.27
2018-02-05T14:07:50.238Z,1020.28
2018-02-05T14:08:49.865Z,1020.26
2018-02-05T14:10:49.934Z,1020.27
2018-02-05T14:11:49.876Z,1020.27
2018-02-05T14:13:53.401Z,1020.23
2018-02-05T14:14:49.809Z,1020.23
2018-02-05T14:15:49.800Z,1020.18
2018-02-05T14:16:49.773Z,1020.20
2018-02-05T14:17:49.789Z,1020.15
2018-02-05T14:19:50.077Z,1020.12
2018-02-05T14:20:49.739Z,1020.13
2018-02-05T14:21:50.212Z,1020.15
2018-02-05T14:22:49.715Z,1020.10
2018-02-05T14:24:49.769Z,1020.10
2018-02-05T14:26:50.021Z,1020.03
2018-02-05T14:27:49.668Z,1020.06
2018-02-05T14:28:49.670Z,1020.05
2018-02-05T14:29:49.627Z,1020.03
2018-02-05T14:30:49.659Z,1020.03
2018-02-05T14:34:49.593Z,1019.99
2018-02-05T14:35:49.597Z,1020.01
2018-02-05T14:36:49.697Z,1020.02
2018-02-05T14:37:49.736Z,1019.99